Map

Track Data

SID SEASON NUMBER BASIN SUBBASIN NAME ISO_TIME NATURE LAT LON WMO_WIND WMO_PRES WMO_AGENCY TRACK_TYPE DIST2LAND LANDFALL IFLAG USA_AGENCY USA_ATCF_ID USA_LAT USA_LON USA_RECORD USA_STATUS USA_WIND USA_PRES USA_SSHS USA_R34_NE USA_R34_SE USA_R34_SW USA_R34_NW USA_R50_NE USA_R50_SE USA_R50_SW USA_R50_NW USA_R64_NE USA_R64_SE USA_R64_SW USA_R64_NW USA_POCI USA_ROCI USA_RMW USA_EYE TOKYO_LAT TOKYO_LON TOKYO_GRADE TOKYO_WIND TOKYO_PRES TOKYO_R50_DIR TOKYO_R50_LONG TOKYO_R50_SHORT TOKYO_R30_DIR TOKYO_R30_LONG TOKYO_R30_SHORT TOKYO_LAND CMA_LAT CMA_LON CMA_CAT CMA_WIND CMA_PRES HKO_LAT HKO_LON HKO_CAT HKO_WIND HKO_PRES NEWDELHI_LAT NEWDELHI_LON NEWDELHI_GRADE NEWDELHI_WIND NEWDELHI_PRES NEWDELHI_CI NEWDELHI_DP NEWDELHI_POCI REUNION_LAT REUNION_LON REUNION_TYPE REUNION_WIND REUNION_PRES REUNION_TNUM REUNION_CI REUNION_RMW REUNION_R34_NE REUNION_R34_SE REUNION_R34_SW REUNION_R34_NW REUNION_R50_NE REUNION_R50_SE REUNION_R50_SW REUNION_R50_NW REUNION_R64_NE REUNION_R64_SE REUNION_R64_SW REUNION_R64_NW BOM_LAT BOM_LON BOM_TYPE BOM_WIND BOM_PRES BOM_TNUM BOM_CI BOM_RMW BOM_R34_NE BOM_R34_SE BOM_R34_SW BOM_R34_NW BOM_R50_NE BOM_R50_SE BOM_R50_SW BOM_R50_NW BOM_R64_NE BOM_R64_SE BOM_R64_SW BOM_R64_NW BOM_ROCI BOM_POCI BOM_EYE BOM_POS_METHOD BOM_PRES_METHOD NADI_LAT NADI_LON NADI_CAT NADI_WIND NADI_PRES WELLINGTON_LAT WELLINGTON_LON WELLINGTON_WIND WELLINGTON_PRES DS824_LAT DS824_LON DS824_STAGE DS824_WIND DS824_PRES TD9636_LAT TD9636_LON TD9636_STAGE TD9636_WIND TD9636_PRES TD9635_LAT TD9635_LON TD9635_WIND TD9635_PRES TD9635_ROCI NEUMANN_LAT NEUMANN_LON NEUMANN_CLASS NEUMANN_WIND NEUMANN_PRES MLC_LAT MLC_LON MLC_CLASS MLC_WIND MLC_PRES USA_GUST BOM_GUST BOM_GUST_PER REUNION_GUST REUNION_GUST_PER USA_SEAHGT USA_SEARAD_NE USA_SEARAD_SE USA_SEARAD_SW USA_SEARAD_NW STORM_SPEED STORM_DIR
1922038S20156 1922 12 SP EA NOT_NAMED 1922-02-06 23:00:00 NR -19.8000 155.700 bom main 590 590 ______O_______ -1 -19.8000 155.700 0 0
1922038S20156 1922 12 SP EA NOT_NAMED 1922-02-07 00:00:00 TS -19.8022 155.703 main 590 590 ______P__O____ -1 -19.8033 155.704 -19.8000 155.700 TC 0 0
1922038S20156 1922 12 SP EA NOT_NAMED 1922-02-07 03:00:00 TS -19.8124 155.715 main 590 590 ______P__P____ -1 -19.8139 155.717 -19.8102 155.713 TC 0 0
1922038S20156 1922 12 SP EA NOT_NAMED 1922-02-07 06:00:00 TS -19.8244 155.730 main 590 590 ______P__P____ -1 -19.8263 155.732 -19.8218 155.727 TC 0 132
1922038S20156 1922 12 SP EA NOT_NAMED 1922-02-07 09:00:00 TS -19.8391 155.746 main 590 590 ______P__P____ -1 -19.8419 155.749 -19.8363 155.743 TC 0 128
1922038S20156 1922 12 SP EA NOT_NAMED 1922-02-07 12:00:00 TS -19.8586 155.766 main 594 594 ______P__P____ -1 -19.8623 155.770 -19.8549 155.763 TC 1 143
1922038S20156 1922 12 SP EA NOT_NAMED 1922-02-07 15:00:00 TS -19.8840 155.792 main 594 594 ______P__P____ -1 -19.8888 155.796 -19.8792 155.787 TC 1 137
1922038S20156 1922 12 SP EA NOT_NAMED 1922-02-07 18:00:00 TS -19.9167 155.823 main 594 594 ______P__P____ -1 -19.9228 155.829 -19.9106 155.817 TC 1 135
1922038S20156 1922 12 SP EA NOT_NAMED 1922-02-07 21:00:00 TS -19.9580 155.862 main 597 597 ______P__P____ -1 -19.9657 155.869 -19.9504 155.855 TC 1 135
1922038S20156 1922 12 SP EA NOT_NAMED 1922-02-07 23:00:00 TS -19.9911 155.892 bom main 597 597 ______O__P____ -1 -20.0000 155.900 -19.9823 155.884 TC 1 139
1922038S20156 1922 12 SP EA NOT_NAMED 1922-02-08 00:00:00 TS -20.0095 155.909 main 597 589 ______P__O____ -1 -20.0190 155.917 -20.0000 155.900 TC 2 140
1922038S20156 1922 12 SP EA NOT_NAMED 1922-02-08 03:00:00 TS -20.0714 155.964 main 594 594 ______P__P____ -1 -20.0825 155.974 -20.0603 155.954 TC 2 140
1922038S20156 1922 12 SP EA NOT_NAMED 1922-02-08 06:00:00 TS -20.1418 156.026 main 594 584 ______P__P____ -1 -20.1541 156.037 -20.1295 156.015 TC 2 141
1922038S20156 1922 12 SP EA NOT_NAMED 1922-02-08 09:00:00 TS -20.2183 156.093 main 589 579 ______P__P____ -1 -20.2315 156.104 -20.2052 156.081 TC 2 141
1922038S20156 1922 12 SP EA NOT_NAMED 1922-02-08 12:00:00 TS -20.2987 156.161 main 584 574 ______P__P____ -1 -20.3123 156.173 -20.2851 156.150 TC 2 142
1922038S20156 1922 12 SP EA NOT_NAMED 1922-02-08 15:00:00 TS -20.3805 156.229 main 574 570 ______P__P____ -1 -20.3942 156.240 -20.3669 156.218 TC 2 142
1922038S20156 1922 12 SP EA NOT_NAMED 1922-02-08 18:00:00 TS -20.4615 156.295 main 570 570 ______P__P____ -1 -20.4748 156.305 -20.4482 156.284 TC 2 143
1922038S20156 1922 12 SP EA NOT_NAMED 1922-02-08 21:00:00 TS -20.5392 156.355 main 576 570 ______P__P____ -1 -20.5518 156.365 -20.5267 156.346 TC 0 189
1922038S20156 1922 12 SP EA NOT_NAMED 1922-02-08 23:00:00 TS -20.5006 156.292 bom main 570 565 ______O__PO___ -1 -20.6000 156.400 -20.5763 156.383 TC -19.8000 155.500 7 3 307
1922038S20156 1922 12 SP EA NOT_NAMED 1922-02-09 00:00:00 TS -20.4501 156.227 main 565 565 ______P__OP___ -1 -20.6209 156.414 -20.6000 156.400 TC -19.8089 155.507 7 2 303
1922038S20156 1922 12 SP EA NOT_NAMED 1922-02-09 03:00:00 TS -20.4430 156.197 main 574 574 ______P__PP___ -1 -20.6807 156.453 -20.6612 156.441 TC -19.8353 155.529 7 1 282
1922038S20156 1922 12 SP EA NOT_NAMED 1922-02-09 06:00:00 TS -20.4386 156.172 main 574 565 ______P__PP___ -1 -20.7366 156.486 -20.7184 156.476 TC -19.8609 155.553 7 0 171
1922038S20156 1922 12 SP EA NOT_NAMED 1922-02-09 09:00:00 TS -20.4821 156.200 main 565 565 ______P__PP___ -1 -20.7892 156.514 -20.7720 156.505 TC -19.8850 155.580 7 1 154
1922038S20156 1922 12 SP EA NOT_NAMED 1922-02-09 11:00:00 TS -20.5095 156.217 main 565 565 ______P__PO___ -1 -20.8224 156.530 -20.8060 156.522 TC -19.9000 155.600 7 1 0
1922038S20156 1922 12 SP EA NOT_NAMED 1922-02-09 12:00:00 TS -20.5227 156.226 main 565 555 ______P__PP___ -1 -20.8386 156.538 -20.8224 156.530 TC -19.9071 155.611 7 1 139
1922038S20156 1922 12 SP EA NOT_NAMED 1922-02-09 15:00:00 TS -20.5611 156.252 main 561 561 ______P__PP___ -1 -20.8854 156.558 -20.8701 156.551 TC -19.9279 155.648 7 1 141
1922038S20156 1922 12 SP EA NOT_NAMED 1922-02-09 18:00:00 TS -20.5985 156.280 main 561 561 ______P__PP___ -1 -20.9299 156.575 -20.9153 156.569 TC -19.9503 155.694 7 1 141
1922038S20156 1922 12 SP EA NOT_NAMED 1922-02-09 21:00:00 TS -20.6362 156.310 main 561 551 ______P__PP___ -1 -20.9725 156.590 -20.9585 156.585 TC -19.9776 155.753 7 1 136
1922038S20156 1922 12 SP EA NOT_NAMED 1922-02-09 23:00:00 TS -20.6621 156.332 bom main 551 551 ______O__PO___ -1 -21.0000 156.600 -20.9863 156.595 TC -20.0000 155.800 7 1 134
1922038S20156 1922 12 SP EA NOT_NAMED 1922-02-10 00:00:00 TS -20.6751 156.345 main 551 551 ______P__OP___ -1 -21.0143 156.605 -21.0000 156.600 TC -20.0109 155.830 7 1 132
1922038S20156 1922 12 SP EA NOT_NAMED 1922-02-10 03:00:00 TS -20.7153 156.390 main 557 548 ______P__PP___ -1 -21.0557 156.620 -21.0421 156.615 TC -20.0480 155.934 7 1 137
1922038S20156 1922 12 SP EA NOT_NAMED 1922-02-10 06:00:00 TS -20.7572 156.435 main 548 548 ______P__PP___ -1 -21.0951 156.632 -21.0822 156.628 TC -20.0942 156.044 7 1 137
1922038S20156 1922 12 SP EA NOT_NAMED 1922-02-10 09:00:00 TS -20.8020 156.476 main 554 554 ______P__PP___ -1 -21.1329 156.643 -21.1205 156.640 TC -20.1527 156.145 7 1 143
1922038S20156 1922 12 SP EA NOT_NAMED 1922-02-10 11:00:00 TS -20.8343 156.499 main 554 554 ______P__PO___ -1 -21.1575 156.650 -21.1453 156.647 TC -20.2000 156.200 7 1 137
1922038S20156 1922 12 SP EA NOT_NAMED 1922-02-10 12:00:00 TS -20.8520 156.507 main 545 545 ______P__PP___ -1 -21.1696 156.654 -21.1575 156.650 TC -20.2291 156.216 7 1 161
1922038S20156 1922 12 SP EA NOT_NAMED 1922-02-10 15:00:00 TS -20.9091 156.524 main 545 536 ______P__PP___ -1 -21.2054 156.664 -21.1935 156.661 TC -20.3283 156.246 7 1 159
1922038S20156 1922 12 SP EA NOT_NAMED 1922-02-10 18:00:00 TS -20.9686 156.537 main 536 536 ______P__PP___ -1 -21.2408 156.676 -21.2290 156.672 TC -20.4360 156.262 7 1 172
1922038S20156 1922 12 SP EA NOT_NAMED 1922-02-10 21:00:00 TS -21.0267 156.551 main 542 533 ______P__PP___ -1 -21.2762 156.690 -21.2644 156.685 TC -20.5395 156.280 7 1 166
1922038S20156 1922 12 SP EA NOT_NAMED 1922-02-10 23:00:00 TS -21.0627 156.565 bom main 533 533 ______O__PO___ -1 -21.3000 156.700 -21.2881 156.695 TC -20.6000 156.300 7 1 157
1922038S20156 1922 12 SP EA NOT_NAMED 1922-02-11 00:00:00 TS -21.0780 156.576 main 533 533 ______P__OP___ -1 -21.3107 156.707 -21.3000 156.700 TC -20.6234 156.321 7 1 144
1922038S20156 1922 12 SP EA NOT_NAMED 1922-02-11 03:00:00 TS -21.1182 156.615 main 533 531 ______P__PP___ -1 -21.3421 156.730 -21.3298 156.720 TC -20.6825 156.395 7 1 133
1922038S20156 1922 12 SP EA NOT_NAMED 1922-02-11 06:00:00 TS -21.1540 156.659 main 531 531 ______P__PP___ -1 -21.3732 156.755 -21.3588 156.743 TC -20.7299 156.478 7 1 132
1922038S20156 1922 12 SP EA NOT_NAMED 1922-02-11 09:00:00 TS -21.1885 156.702 main 531 531 ______P__PP___ -1 -21.4052 156.782 -21.3883 156.767 TC -20.7719 156.556 7 1 131
1922038S20156 1922 12 SP EA NOT_NAMED 1922-02-11 11:00:00 TS -21.2122 156.728 main 531 531 ______P__PO___ -1 -21.4275 156.800 -21.4091 156.784 TC -20.8000 156.600 7 1 132
1922038S20156 1922 12 SP EA NOT_NAMED 1922-02-11 12:00:00 TS -21.2257 156.739 main 531 530 ______P__PP___ -1 -21.4391 156.809 -21.4200 156.793 TC -20.8179 156.615 7 1 144
1922038S20156 1922 12 SP EA NOT_NAMED 1922-02-11 15:00:00 TS -21.2680 156.768 main 530 530 ______P__PP___ -1 -21.4763 156.836 -21.4555 156.819 TC -20.8721 156.649 7 1 146
1922038S20156 1922 12 SP EA NOT_NAMED 1922-02-11 18:00:00 TS -21.3129 156.793 main 530 521 ______P__PP___ -1 -21.5179 156.862 -21.4963 156.846 TC -20.9246 156.672 7 1 163
1922038S20156 1922 12 SP EA NOT_NAMED 1922-02-11 21:00:00 TS -21.3604 156.816 main 521 521 ______P__PP___ -1 -21.5649 156.885 -21.5439 156.873 TC -20.9724 156.689 7 1 156
1922038S20156 1922 12 SP EA NOT_NAMED 1922-02-11 23:00:00 TS -21.3934 156.830 bom main 521 521 ______O__PO___ -1 -21.6000 156.900 -21.5803 156.891 TC -21.0000 156.700 7 1 0
1922038S20156 1922 12 SP EA NOT_NAMED 1922-02-12 00:00:00 TS -21.4032 156.833 main 521 521 ______P__OP___ -1 -21.5992 156.891 -21.6000 156.900 TC -21.0105 156.710 7 0 0
1922038S20156 1922 12 SP EA NOT_NAMED 1922-02-12 03:00:00 TS -21.4200 156.826 main 521 521 ______P__PP___ -1 -21.5918 156.853 -21.6322 156.886 TC -21.0358 156.739 7 0 210
1922038S20156 1922 12 SP EA NOT_NAMED 1922-02-12 06:00:00 TS -21.4374 156.815 main 521 513 ______P__PP___ -1 -21.5868 156.812 -21.6684 156.867 TC -21.0570 156.766 7 0 0
1922038S20156 1922 12 SP EA NOT_NAMED 1922-02-12 09:00:00 TS -21.4637 156.805 main 513 513 ______P__PP___ -1 -21.5965 156.776 -21.7144 156.851 TC -21.0802 156.789 7 1 199
1922038S20156 1922 12 SP EA NOT_NAMED 1922-02-12 11:00:00 TS -21.4903 156.802 main 513 513 ______P__PO___ -1 -21.6172 156.760 -21.7535 156.846 TC -21.1000 156.800 7 1 0
1922038S20156 1922 12 SP EA NOT_NAMED 1922-02-12 12:00:00 TS -21.5080 156.802 main 513 505 ______P__PP___ -1 -21.6333 156.756 -21.7763 156.847 TC -21.1145 156.803 7 1 172
1922038S20156 1922 12 SP EA NOT_NAMED 1922-02-12 15:00:00 TS -21.5778 156.811 main 505 497 ______P__PP___ -1 -21.7095 156.764 -21.8598 156.861 TC -21.1642 156.808 7 2 166
1922038S20156 1922 12 SP EA NOT_NAMED 1922-02-12 18:00:00 TS -21.6756 156.840 main 497 497 ______P__PP___ -1 -21.8377 156.810 -21.9710 156.903 TC -21.2180 156.807 7 2 161
1922038S20156 1922 12 SP EA NOT_NAMED 1922-02-12 21:00:00 TS -21.8052 156.896 main 497 489 ______P__PP___ -1 -22.0300 156.904 -22.1158 156.980 TC -21.2698 156.803 7 3 157
1922038S20156 1922 12 SP EA NOT_NAMED 1922-02-12 23:00:00 TS -21.9113 156.952 bom main 497 490 ______O__PO___ -1 -22.2000 157.000 -22.2339 157.055 TC -21.3000 156.800 7 4 154
1922038S20156 1922 12 SP EA NOT_NAMED 1922-02-13 00:00:00 TS -21.9723 156.986 main 490 483 ______P__OP___ -1 -22.3052 157.058 -22.3000 157.100 TC -21.3093 156.798 7 5 151
1922038S20156 1922 12 SP EA NOT_NAMED 1922-02-13 03:00:00 TS -22.1792 157.110 main 484 479 ______P__PP___ -1 -22.6617 157.266 -22.5346 157.265 TC -21.3305 156.790 7 5 149
1922038S20156 1922 12 SP EA NOT_NAMED 1922-02-13 06:00:00 TS -22.4071 157.263 main 487 481 ______P__PP___ -1 -23.0474 157.516 -22.8090 157.471 TC -21.3492 156.785 7 5 147
1922038S20156 1922 12 SP EA NOT_NAMED 1922-02-13 08:00:00 TS -22.5632 157.377 bom main 484 484 ______O__PP___ -1 -23.3000 157.700 -23.0106 157.630 TC -21.3649 156.787 7 6 145
1922038S20156 1922 12 SP EA NOT_NAMED 1922-02-13 09:00:00 TS -22.6363 157.436 main 484 481 ______P__PP___ -1 -23.4066 157.790 -23.1162 157.716 TC -21.3747 156.790 7 6 143
1922038S20156 1922 12 SP EA NOT_NAMED 1922-02-13 11:00:00 TS -22.7816 157.560 main 491 485 ______P__PO___ -1 -23.6091 157.981 -23.3358 157.899 TC -21.4000 156.800 7 9 145
1922038S20156 1922 12 SP EA NOT_NAMED 1922-02-13 12:00:00 TS -22.9854 157.700 main 490 489 ______P__P____ -1 -23.7062 158.081 -23.4492 157.996 TC 7 11 144
1922038S20156 1922 12 SP EA NOT_NAMED 1922-02-13 15:00:00 TS -23.4006 158.040 main 499 499 ______P__P____ -1 -23.9893 158.395 -23.8010 158.307 TC 7 12 142
1922038S20156 1922 12 SP EA NOT_NAMED 1922-02-13 18:00:00 TS -23.9107 158.476 main 530 527 ______P__P____ -1 -24.2739 158.726 -24.1647 158.647 TC 7 15 142
1922038S20156 1922 12 SP EA NOT_NAMED 1922-02-13 21:00:00 TS -24.5555 159.041 main 566 566 ______P__P____ -1 -24.5777 159.069 -24.5333 159.013 TC 7 14 140
1922038S20156 1922 12 SP EA NOT_NAMED 1922-02-13 23:00:00 TS -24.7892 159.284 bom main 595 594 ______O__P____ -1 -24.8000 159.300 -24.7784 159.269 TC 7 10 139
1922038S20156 1922 12 SP EA NOT_NAMED 1922-02-14 00:00:00 TS -24.9235 159.395 main 604 604 ______P__O____ -1 -24.9470 159.391 -24.9000 159.400 TC 7 11 144
1922038S20156 1922 12 SP EA NOT_NAMED 1922-02-14 03:00:00 TS -25.3760 159.752 main 644 644 ______P__P____ -1 -25.4256 159.656 -25.3265 159.849 TC 7 11 144
1922038S20156 1922 12 SP MM NOT_NAMED 1922-02-14 06:00:00 TS -25.8483 160.133 main 678 678 ______P__P____ -1 -25.9304 159.932 -25.7662 160.334 TC 7 12 143
1922038S20156 1922 12 SP MM NOT_NAMED 1922-02-14 09:00:00 TS -26.3110 160.543 main 706 700 ______P__P____ -1 -26.4224 160.248 -26.1996 160.838 TC 7 12 140
1922038S20156 1922 12 SP MM NOT_NAMED 1922-02-14 11:00:00 TS -26.5997 160.835 main 714 708 ______P__P____ -1 -26.7240 160.495 -26.4753 161.176 TC 7 12 137
1922038S20156 1922 12 SP MM NOT_NAMED 1922-02-14 12:00:00 TS -26.7348 160.988 main 712 712 ______P__P____ -1 -26.8625 160.632 -26.6071 161.343 TC 7 11 131
1922038S20156 1922 12 SP MM NOT_NAMED 1922-02-14 15:00:00 TS -27.0904 161.472 main 724 719 ______P__P____ -1 -27.2111 161.113 -26.9697 161.831 TC 7 11 128
1922038S20156 1922 12 SP MM NOT_NAMED 1922-02-14 16:00:00 TS -27.1887 161.643 bom main 728 713 ______O__P____ -1 -27.3000 161.300 -27.0773 161.987 TC 7 11 118
1922038S20156 1922 12 SP MM NOT_NAMED 1922-02-14 18:00:00 TS -27.3537 162.026 main 722 695 ______P__P____ -1 -27.4389 161.770 -27.2685 162.283 TC 7 11 112
1922038S20156 1922 12 SP MM NOT_NAMED 1922-02-14 21:00:00 TS -27.5249 162.585 main 695 689 ______P__P____ -1 -27.5651 162.490 -27.4847 162.679 TC 7 10 107
1922038S20156 1922 12 SP MM NOT_NAMED 1922-02-14 23:00:00 TS -27.5870 162.901 bom main 689 684 ______O__P____ -1 -27.6000 162.900 -27.5739 162.903 TC 7 8 102
1922038S20156 1922 12 SP MM NOT_NAMED 1922-02-15 00:00:00 TS -27.6062 163.026 main 684 669 ______P__O____ -1 -27.6124 163.052 -27.6000 163.000 TC 7 5 91
1922038S20156 1922 12 SP MM NOT_NAMED 1922-02-15 03:00:00 TS -27.5929 163.297 main 669 650 ______P__P____ -1 -27.5954 163.366 -27.5904 163.227 TC 7 4 76
1922038S20156 1922 12 SP MM NOT_NAMED 1922-02-15 06:00:00 TS -27.5079 163.457 main 650 640 ______P__P____ -1 -27.5150 163.520 -27.5008 163.394 TC 7 3 46
1922038S20156 1922 12 SP MM NOT_NAMED 1922-02-15 09:00:00 TS -27.3771 163.547 main 640 625 ______P__P____ -1 -27.3933 163.580 -27.3608 163.513 TC 7 3 27
1922038S20156 1922 12 SP MM NOT_NAMED 1922-02-15 11:00:00 TS -27.2771 163.587 bom main 625 616 ______O__P____ -1 -27.3000 163.600 -27.2541 163.574 TC 7 3 24
1922038S20156 1922 12 SP MM NOT_NAMED 1922-02-15 12:00:00 TS -27.2324 163.621 main 616 601 ______P__O____ -1 -27.2649 163.642 -27.2000 163.600 TC 7 3 36
1922038S20156 1922 12 SP MM NOT_NAMED 1922-02-15 15:00:00 TS -27.1076 163.725 main 601 587 ______P__P____ -1 -27.1451 163.742 -27.0702 163.707 TC 7 3 30
1922038S20156 1922 12 SP MM NOT_NAMED 1922-02-15 18:00:00 TS -26.9635 163.792 main 587 567 ______P__P____ -1 -27.0012 163.803 -26.9258 163.782 TC 7 3 15
1922038S20156 1922 12 SP MM NOT_NAMED 1922-02-15 21:00:00 TS -26.7994 163.817 main 567 557 ______P__P____ -1 -26.8304 163.818 -26.7685 163.816 TC 7 3 3
1922038S20156 1922 12 SP MM NOT_NAMED 1922-02-15 23:00:00 TS -26.6786 163.806 bom main 557 547 ______O__P____ -1 -26.7000 163.800 -26.6573 163.812 TC 7 4 0
1922038S20156 1922 12 SP MM NOT_NAMED 1922-02-16 00:00:00 TS -26.6132 163.795 main 547 528 ______P__O____ -1 -26.6264 163.789 -26.6000 163.800 TC 7 4 350
1922038S20156 1922 12 SP MM NOT_NAMED 1922-02-16 03:00:00 TS -26.4030 163.761 main 528 514 ______P__P____ -1 -26.3829 163.724 -26.4232 163.797 TC 7 4 348
1922038S20156 1922 12 SP MM NOT_NAMED 1922-02-16 06:00:00 TS -26.1795 163.685 main 514 507 ______P__P____ -1 -26.1248 163.612 -26.2343 163.757 TC 7 6 311
1922038S20156 1922 12 SP MM NOT_NAMED 1922-02-16 09:00:00 TS -26.0071 163.247 main 525 525 ______P__P____ -1 -25.8764 163.459 -26.0363 163.670 TC 7 10 284
1922038S20156 1922 12 SP MM NOT_NAMED 1922-02-16 10:00:00 TS -26.0200 162.982 bom main 537 537 ______O__P____ -1 -25.8000 163.400 -25.9687 163.629 TC 7 12 263
1922038S20156 1922 12 SP MM NOT_NAMED 1922-02-16 11:00:00 TS -26.0589 162.797 main 558 558 ______P__PO___ -1 -25.7365 163.361 -25.9005 163.582 TC -26.7000 161.000 7 9 252
1922038S20156 1922 12 SP MM NOT_NAMED 1922-02-16 12:00:00 TS -26.1118 162.672 main 564 564 ______P__PP___ -1 -25.6768 163.321 -25.8318 163.527 TC -26.7797 161.146 7 1 241
1922038S20156 1922 12 SP MM NOT_NAMED 1922-02-16 15:00:00 TS -26.0971 162.727 main 564 564 ______P__PP___ -1 -25.5147 163.176 -25.6236 163.318 TC -27.0123 161.602 7 1 47
1922038S20156 1922 12 SP MM NOT_NAMED 1922-02-16 18:00:00 TS -26.0580 162.734 main 564 546 ______P__PP___ -1 -25.3655 162.971 -25.4140 163.033 TC -27.2370 162.079 7 3 347
1922038S20156 1922 12 SP MM NOT_NAMED 1922-02-16 21:00:00 TS -25.8468 162.663 main 537 529 ______P__PP___ -1 -25.2124 162.670 -25.2055 162.664 TC -27.4560 162.569 7 6 334
1922038S20156 1922 12 SP MM NOT_NAMED 1922-02-16 23:00:00 TS -25.5872 162.486 bom main 529 510 ______O__PO___ -1 -25.1000 162.400 -25.0680 162.366 TC -27.6000 162.900 7 13 329
1922038S20156 1922 12 SP MM NOT_NAMED 1922-02-17 00:00:00 TS -25.3016 162.306 main 510 493 ______P__O____ -1 -25.0233 162.239 -25.0000 162.200 TC 7 17 317
1922038S20156 1922 12 SP MM NOT_NAMED 1922-02-17 03:00:00 TS -24.7721 161.655 main 501 499 ______P__P____ -1 -24.7760 161.669 -24.7681 161.642 TC 7 14 303
1922038S20156 1922 12 SP MM NOT_NAMED 1922-02-17 06:00:00 TS -24.5358 161.002 main 528 528 ______P__P____ -1 -24.5276 161.003 -24.5439 161.002 TC 7 13 290
1922038S20156 1922 12 SP MM NOT_NAMED 1922-02-17 09:00:00 TS -24.3292 160.298 main 571 571 ______P__P____ -1 -24.3107 160.285 -24.3476 160.311 TC 7 13 286
1922038S20156 1922 12 SP EA NOT_NAMED 1922-02-17 11:00:00 TS -24.2212 159.819 bom main 606 606 ______O__P____ -1 -24.2000 159.800 -24.2425 159.837 TC 13 283
1922038S20156 1922 12 SP EA NOT_NAMED 1922-02-17 12:00:00 TS -24.1814 159.584 main 622 564 ______P__O____ -1 -24.1628 159.569 -24.2000 159.600 TC 13 278
1922038S20156 1922 12 SP EA NOT_NAMED 1922-02-17 15:00:00 TS -24.1071 158.878 main 564 495 ______P__P____ -1 -24.0946 158.860 -24.1197 158.897 TC 13 274
1922038S20156 1922 12 SP EA NOT_NAMED 1922-02-17 18:00:00 TS -24.0821 158.164 main 495 426 ______P__P____ -1 -24.0758 158.147 -24.0885 158.181 TC 13 271
1922038S20156 1922 12 SP EA NOT_NAMED 1922-02-17 21:00:00 TS -24.0871 157.461 main 426 377 ______P__P____ -1 -24.0864 157.448 -24.0879 157.475 TC 13 269
1922038S20156 1922 12 SP EA NOT_NAMED 1922-02-17 23:00:00 TS -24.0978 157.010 995 bom main 377 358 ______O__P____ -1 -24.1000 157.000 995 4 -24.0956 157.020 TC 12 269
1922038S20156 1922 12 SP EA NOT_NAMED 1922-02-18 00:00:00 TS -24.1027 156.788 main 358 300 ______P__O____ -1 -24.1053 156.777 -24.1000 156.800 TC 40 995 12 268
1922038S20156 1922 12 SP EA NOT_NAMED 1922-02-18 03:00:00 TS -24.1261 156.132 main 290 230 ______P__P____ -1 -24.1366 156.122 -24.1156 156.141 TC 12 267
1922038S20156 1922 12 SP EA NOT_NAMED 1922-02-18 06:00:00 TS -24.1642 155.503 main 230 175 ______P__P____ -1 -24.1825 155.495 -24.1459 155.511 TC 11 266
1922038S20156 1922 12 SP EA NOT_NAMED 1922-02-18 09:00:00 TS -24.2066 154.909 main 175 147 ______P__P____ -1 -24.2321 154.902 -24.1811 154.915 TC 11 266
1922038S20156 1922 12 SP EA NOT_NAMED 1922-02-18 11:00:00 TS -24.2323 154.535 main 138 129 ______P__P____ -1 -24.2620 154.530 -24.2027 154.540 TC 10 266
1922038S20156 1922 12 SP EA NOT_NAMED 1922-02-18 12:00:00 TS -24.2433 154.356 main 129 82 ______P__P____ -1 -24.2748 154.351 -24.2118 154.360 TC 9 267
1922038S20156 1922 12 SP EA NOT_NAMED 1922-02-18 15:00:00 TS -24.2641 153.851 main 82 56 ______P__P____ -1 -24.2998 153.848 -24.2285 153.854 TC 9 269
1922038S20156 1922 12 SP EA NOT_NAMED 1922-02-18 18:00:00 TS -24.2592 153.403 main 56 55 ______P__P____ -1 -24.2966 153.401 -24.2217 153.404 TC 8 273
1922038S20156 1922 12 SP EA NOT_NAMED 1922-02-18 21:00:00 TS -24.2184 153.017 main 67 67 ______P__P____ -1 -24.2547 153.017 -24.1820 153.017 TC 7 280
1922038S20156 1922 12 SP EA NOT_NAMED 1922-02-18 23:00:00 TS -24.1663 152.799 bom main 73 73 ______O__P____ -1 -24.2000 152.800 -24.1326 152.797 TC 6 286
1922038S20156 1922 12 SP EA NOT_NAMED 1922-02-19 00:00:00 TS -24.1311 152.693 main 81 55 ______P__O____ -1 -24.1621 152.686 -24.1000 152.700 TC 6 294
1922038S20156 1922 12 SP EA NOT_NAMED 1922-02-19 03:00:00 TS -23.9990 152.394 main 55 45 ______P__P____ -1 -24.0225 152.392 -23.9755 152.395 TC 6 302
1922038S20156 1922 12 SP EA NOT_NAMED 1922-02-19 06:00:00 TS -23.8321 152.171 main 52 45 ______P__P____ -1 -23.8486 152.174 -23.8156 152.169 TC 5 318
1922038S20156 1922 12 SP EA NOT_NAMED 1922-02-19 09:00:00 TS -23.6349 152.036 main 59 59 ______P__P____ -1 -23.6469 152.039 -23.6229 152.033 TC 5 335
1922038S20156 1922 12 SP EA NOT_NAMED 1922-02-19 11:00:00 TS -23.4888 151.999 bom main 70 70 ______O__P____ -1 -23.5000 152.000 -23.4775 151.999 TC 4 347
1922038S20156 1922 12 SP EA NOT_NAMED 1922-02-19 12:00:00 TS -23.4201 151.977 main 80 80 ______P__O____ -1 -23.4403 151.953 -23.4000 152.000 TC 4 346
1922038S20156 1922 12 SP EA NOT_NAMED 1922-02-19 15:00:00 TS -23.2042 151.930 main 101 101 ______P__P____ -1 -23.2503 151.863 -23.1582 151.996 TC 5 0
1922038S20156 1922 12 SP EA NOT_NAMED 1922-02-19 18:00:00 TS -22.9565 151.998 main 123 122 ______P__P____ -1 -23.0246 151.897 -22.8885 152.100 TC 6 27
1922038S20156 1922 12 SP EA NOT_NAMED 1922-02-19 21:00:00 TS -22.6688 152.223 main 143 143 ______P__P____ -1 -22.7380 152.118 -22.5996 152.329 TC 8 41
1922038S20156 1922 12 SP EA NOT_NAMED 1922-02-19 23:00:00 TS -22.4503 152.480 bom main 174 174 ______O__P____ -1 -22.5000 152.400 -22.4006 152.560 TC 10 49
1922038S20156 1922 12 SP EA NOT_NAMED 1922-02-20 00:00:00 TS -22.3271 152.643 main 186 186 ______P__O____ -1 -22.3541 152.586 -22.3000 152.700 TC 13 54
1922038S20156 1922 12 SP EA NOT_NAMED 1922-02-20 03:00:00 TS -21.9272 153.265 main 265 265 ______P__P____ -1 -21.8583 153.306 -21.9960 153.224 TC 15 70
1922038S20156 1922 12 SP EA NOT_NAMED 1922-02-20 06:00:00 TS -21.8041 154.211 main 347 343 ______P__P____ -1 -21.3317 154.182 -21.6878 153.885 TC 16 86
1922038S20156 1922 12 SP EA NOT_NAMED 1922-02-20 08:00:00 TS -21.8278 154.737 bom main 364 364 ______O__P____ -1 -21.0000 154.800 -21.4794 154.393 TC 15 61
1922038S20156 1922 12 SP EA NOT_NAMED 1922-02-20 09:00:00 TS -21.4473 154.900 main 413 413 ______P__P____ -1 -20.8352 155.078 -21.3742 154.664 TC 24 34
1922038S20156 1922 12 SP EA NOT_NAMED 1922-02-20 11:00:00 TS -20.8382 155.442 main 496 496 ______P__P____ -1 -20.5150 155.645 -21.1615 155.239 TC 22 47
1922038S20156 1922 12 SP EA NOT_NAMED 1922-02-20 12:00:00 TS -20.7086 155.737 main 520 520 ______P__P____ -1 -20.3633 155.934 -21.0540 155.541 TC 19 67
1922038S20156 1922 12 SP EA NOT_NAMED 1922-02-20 15:00:00 TS -20.3455 156.659 main 612 612 ______P__P____ -1 -19.9644 156.825 -20.7265 156.493 TC 19 69
1922038S20156 1922 12 SP EA NOT_NAMED 1922-02-20 18:00:00 TS -20.0405 157.628 main 668 607 ______P__P____ -1 -19.6894 157.755 -20.3915 157.501 TC 19 73
1922038S20156 1922 12 SP EA NOT_NAMED 1922-02-20 20:00:00 TS -19.8820 158.297 bom main 596 566 ______O__P____ -1 -19.6000 158.400 -20.1640 158.193 TC 20 75
1922038S20156 1922 12 SP EA NOT_NAMED 1922-02-20 21:00:00 TS -19.7795 158.658 main 556 495 ______P__P____ -1 -19.5773 158.745 -20.0491 158.544 TC 20 78
1922038S20156 1922 12 SP EA NOT_NAMED 1922-02-20 23:00:00 TS -19.6723 159.349 bom main 495 464 ______O__P____ -1 -19.6000 159.400 -19.8170 159.248 TC 19 82
1922038S20156 1922 12 SP EA NOT_NAMED 1922-02-21 00:00:00 TS -19.6530 159.661 main 454 388 ______P__O____ -1 -19.6412 159.676 -19.7000 159.600 TC 14 104
1922038S20156 1922 12 SP MM NOT_NAMED 1922-02-21 03:00:00 NR -19.9049 160.315 main 388 344 ______P_______ -1 -19.9049 160.315 TC 12 123
1922038S20156 1922 12 SP MM NOT_NAMED 1922-02-21 06:00:00 NR -20.3177 160.753 main 333 305 ______P_______ -1 -20.3177 160.753 TC 12 141
1922038S20156 1922 12 SP MM NOT_NAMED 1922-02-21 09:00:00 NR -20.8000 161.100 bom main 307 291 ______O_______ -1 -20.8000 161.100 TC 12 146
1922038S20156 1922 12 SP MM NOT_NAMED 1922-02-21 11:00:00 NR -21.1243 161.328 main 294 288 ______P_______ -1 -21.1243 161.328 TC 12 146
1922038S20156 1922 12 SP MM NOT_NAMED 1922-02-21 12:00:00 NR -21.2847 161.444 main 292 276 ______P_______ -1 -21.2847 161.444 TC 12 145
1922038S20156 1922 12 SP MM NOT_NAMED 1922-02-21 15:00:00 NR -21.7602 161.802 main 283 274 ______P_______ -1 -21.7602 161.802 TC 12 144
1922038S20156 1922 12 SP MM NOT_NAMED 1922-02-21 18:00:00 NR -22.2287 162.171 main 276 274 ______P_______ -1 -22.2287 162.171 TC 12 144
1922038S20156 1922 12 SP MM NOT_NAMED 1922-02-21 21:00:00 NR -22.6924 162.547 main 286 273 ______P_______ -1 -22.6924 162.547 TC 12 143
1922038S20156 1922 12 SP MM NOT_NAMED 1922-02-21 23:00:00 NR -23.0000 162.800 bom main 280 ______O_______ -1 -23.0000 162.800 TC 12 143

Digital Typhoon Data and Search

About IBTrACS Database

This database is a web-friendly format of International Best Track Archive for Climate Stewardship (IBTrACS), a global best track data archive curated by NOAA dating back to 1842.

Updated: 2021-12-03